createdAt,value
2019-05-17T00:00:59.851Z,3.53
2019-05-17T00:03:36.469Z,3.80
2019-05-17T00:06:11.659Z,3.37
2019-05-17T00:08:50.359Z,3.10
2019-05-17T00:11:23.159Z,4.03
2019-05-17T00:14:00.879Z,3.23
2019-05-17T00:16:33.162Z,3.13
2019-05-17T00:19:07.294Z,3.37
2019-05-17T00:21:36.922Z,3.63
2019-05-17T00:26:59.967Z,4.13
2019-05-17T00:29:31.402Z,4.60
2019-05-17T00:32:01.813Z,3.87
2019-05-17T00:34:31.433Z,4.30
2019-05-17T00:37:01.485Z,4.10
2019-05-17T00:39:31.571Z,4.30
2019-05-17T00:42:07.207Z,4.47
2019-05-17T00:44:37.828Z,4.80
2019-05-17T00:47:08.292Z,4.60
2019-05-17T00:49:39.089Z,5.17
2019-05-17T00:52:08.754Z,4.40
2019-05-17T00:54:43.218Z,4.47
2019-05-17T00:57:16.627Z,5.20
2019-05-17T00:59:47.598Z,4.97
2019-05-17T01:02:17.197Z,5.40
2019-05-17T01:04:50.587Z,5.00
2019-05-17T01:07:23.335Z,5.13
2019-05-17T01:09:56.541Z,4.93
2019-05-17T01:12:27.139Z,5.07
2019-05-17T01:14:58.783Z,5.13
2019-05-17T01:17:29.216Z,5.27
2019-05-17T01:19:58.721Z,5.20
2019-05-17T01:22:28.879Z,5.17
2019-05-17T01:24:59.646Z,5.13
2019-05-17T01:27:38.227Z,5.53
2019-05-17T01:30:09.684Z,5.77
2019-05-17T01:32:39.241Z,6.03
2019-05-17T01:35:09.045Z,5.40
2019-05-17T01:37:39.391Z,6.77
2019-05-17T01:40:17.546Z,6.53
2019-05-17T01:43:07.564Z,7.00
2019-05-17T01:45:29.544Z,6.73
2019-05-17T01:47:59.110Z,6.20
2019-05-17T01:50:29.745Z,6.37
2019-05-17T01:53:02.134Z,6.70
2019-05-17T01:55:31.569Z,6.93
2019-05-17T01:58:01.527Z,6.57
2019-05-17T02:00:34.143Z,6.33
2019-05-17T02:03:04.021Z,6.07
2019-05-17T02:05:32.825Z,7.50
2019-05-17T02:08:02.719Z,7.07
2019-05-17T02:10:32.141Z,7.10
2019-05-17T02:13:02.140Z,7.43
2019-05-17T02:15:33.247Z,7.10
2019-05-17T02:18:07.114Z,6.93
2019-05-17T02:20:37.466Z,8.23
2019-05-17T02:23:07.645Z,8.23
2019-05-17T02:25:37.419Z,7.57
2019-05-17T02:28:07.050Z,8.17
2019-05-17T02:30:37.063Z,8.17
2019-05-17T02:33:06.747Z,8.87
2019-05-17T02:35:36.261Z,7.90
2019-05-17T02:38:04.058Z,8.73
2019-05-17T02:40:34.469Z,8.63
2019-05-17T02:43:04.114Z,8.90
2019-05-17T02:45:34.339Z,8.10
2019-05-17T02:48:04.284Z,9.00
2019-05-17T02:50:34.928Z,9.60
2019-05-17T02:53:08.139Z,9.80
2019-05-17T02:55:38.453Z,9.50
2019-05-17T02:58:08.096Z,9.53
2019-05-17T03:00:54.694Z,10.40
2019-05-17T03:03:24.708Z,10.53
2019-05-17T03:05:55.679Z,11.63
2019-05-17T03:08:34.434Z,11.88
2019-05-17T03:11:13.702Z,11.10
2019-05-17T03:13:45.181Z,10.40
2019-05-17T03:16:24.106Z,11.53
2019-05-17T03:19:13.249Z,10.87
2019-05-17T03:21:46.228Z,10.57
2019-05-17T03:24:22.647Z,11.07
2019-05-17T03:26:52.922Z,11.20
2019-05-17T03:29:33.696Z,11.20
2019-05-17T03:34:44.511Z,11.17
2019-05-17T03:37:39.057Z,10.33
2019-05-17T03:46:44.477Z,11.07
2019-05-17T03:49:39.155Z,10.73
2019-05-17T03:52:02.775Z,9.80
2019-05-17T03:54:36.842Z,10.70
2019-05-17T03:57:06.716Z,9.50
2019-05-17T04:02:13.363Z,9.27
2019-05-17T04:04:43.241Z,9.97
2019-05-17T04:07:28.117Z,9.73
2019-05-17T04:09:59.186Z,9.80
2019-05-17T04:12:32.751Z,9.97
2019-05-17T04:15:03.409Z,9.47
2019-05-17T04:17:34.187Z,9.27
2019-05-17T04:20:04.078Z,9.30
2019-05-17T04:22:33.908Z,9.63
2019-05-17T04:25:13.105Z,9.83
2019-05-17T04:27:43.820Z,9.80
2019-05-17T04:30:16.507Z,9.90
2019-05-17T04:32:48.472Z,9.73
2019-05-17T04:35:18.393Z,10.30
2019-05-17T04:37:47.926Z,10.07
2019-05-17T04:40:17.857Z,9.73
2019-05-17T04:42:47.630Z,10.07
2019-05-17T04:45:17.400Z,10.73
2019-05-17T04:47:53.012Z,10.03
2019-05-17T04:50:24.031Z,10.90
2019-05-17T04:52:54.038Z,9.73
2019-05-17T04:55:28.258Z,9.87
2019-05-17T04:58:03.850Z,9.87
2019-05-17T05:00:33.992Z,9.40
2019-05-17T05:03:07.605Z,10.57
2019-05-17T05:05:38.491Z,10.73
2019-05-17T05:08:08.316Z,11.33
2019-05-17T05:10:38.691Z,10.83
2019-05-17T05:13:08.676Z,10.77
2019-05-17T05:15:43.843Z,9.97
2019-05-17T05:18:13.811Z,10.93
2019-05-17T05:20:43.896Z,10.97
2019-05-17T05:23:13.768Z,12.37
2019-05-17T05:25:46.435Z,11.47
2019-05-17T05:28:16.286Z,12.37
2019-05-17T05:30:49.331Z,12.60
2019-05-17T05:33:22.193Z,11.67
2019-05-17T05:35:57.567Z,11.93
2019-05-17T05:38:27.023Z,11.60
2019-05-17T05:41:01.842Z,12.17
2019-05-17T05:43:32.653Z,11.90
2019-05-17T05:46:12.888Z,12.07
2019-05-17T05:48:44.123Z,12.27
2019-05-17T05:51:13.881Z,12.23
2019-05-17T05:53:44.054Z,11.93
2019-05-17T05:56:14.352Z,11.17
2019-05-17T05:58:43.781Z,11.23
2019-05-17T06:01:13.720Z,12.47
2019-05-17T06:03:43.329Z,11.77
2019-05-17T06:06:14.469Z,11.90
2019-05-17T06:08:44.880Z,12.27
2019-05-17T06:11:17.040Z,12.07
2019-05-17T06:13:46.471Z,12.43
2019-05-17T06:16:16.140Z,12.87
2019-05-17T06:18:46.051Z,13.60
2019-05-17T06:21:15.821Z,13.33
2019-05-17T06:23:45.862Z,13.70
2019-05-17T06:26:17.989Z,14.33
2019-05-17T06:28:48.218Z,13.67
2019-05-17T06:31:17.704Z,14.10
2019-05-17T06:33:47.707Z,13.63
2019-05-17T06:36:17.620Z,13.77
2019-05-17T06:38:47.327Z,13.43
2019-05-17T06:41:22.704Z,12.63
2019-05-17T06:43:52.755Z,13.07
2019-05-17T06:46:23.796Z,13.30
2019-05-17T06:48:53.909Z,13.73
2019-05-17T06:51:26.589Z,14.07
2019-05-17T06:54:04.366Z,13.43
2019-05-17T06:56:45.834Z,12.97
2019-05-17T06:59:22.350Z,13.73
2019-05-17T07:01:52.209Z,13.80
2019-05-17T07:04:58.216Z,12.33
2019-05-17T07:07:43.234Z,13.63
2019-05-17T07:10:19.684Z,11.70
2019-05-17T07:13:43.387Z,11.90
2019-05-17T07:16:39.476Z,11.73
2019-05-17T07:19:10.329Z,10.80
2019-05-17T07:22:21.196Z,11.27
2019-05-17T07:33:25.117Z,11.63
2019-05-17T07:35:59.375Z,11.03
2019-05-17T07:44:20.462Z,10.70
2019-05-17T07:46:54.632Z,10.43
2019-05-17T07:49:44.792Z,10.00
2019-05-17T07:52:20.557Z,10.23
2019-05-17T07:54:50.925Z,9.30
2019-05-17T07:57:31.156Z,9.10
2019-05-17T08:00:01.252Z,8.70
2019-05-17T08:02:31.514Z,8.73
2019-05-17T08:05:04.437Z,9.07
2019-05-17T08:10:13.840Z,7.80
2019-05-17T08:12:55.337Z,9.20
2019-05-17T08:15:30.434Z,8.80
2019-05-17T08:18:32.077Z,8.47
2019-05-17T08:21:03.353Z,8.10
2019-05-17T08:23:35.462Z,8.93
2019-05-17T08:26:05.931Z,9.03
2019-05-17T08:28:49.891Z,9.23
2019-05-17T08:34:15.051Z,8.60
2019-05-17T08:36:45.129Z,9.00
2019-05-17T08:39:23.388Z,8.47
2019-05-17T08:42:12.982Z,9.00
2019-05-17T08:44:50.539Z,9.23
2019-05-17T08:47:22.892Z,9.13
2019-05-17T08:50:00.526Z,8.20
2019-05-17T08:52:42.091Z,9.13
2019-05-17T08:55:25.713Z,8.77
2019-05-17T08:58:00.851Z,9.00
2019-05-17T09:00:34.857Z,8.90
2019-05-17T09:03:38.038Z,8.90
2019-05-17T09:06:07.816Z,9.13
2019-05-17T09:08:42.571Z,9.60
2019-05-17T09:11:19.518Z,9.10
2019-05-17T09:14:01.955Z,9.53
2019-05-17T09:16:30.771Z,9.73
2019-05-17T09:19:01.699Z,9.87
2019-05-17T09:21:50.182Z,10.07
2019-05-17T09:24:34.598Z,8.90
2019-05-17T09:27:06.009Z,9.67
2019-05-17T09:29:35.542Z,9.70
2019-05-17T09:32:05.493Z,10.23
2019-05-17T09:34:55.988Z,9.00
2019-05-17T09:41:20.007Z,9.63
2019-05-17T09:43:52.685Z,9.80
2019-05-17T09:46:59.510Z,8.83
2019-05-17T09:49:36.901Z,10.83
2019-05-17T09:52:06.633Z,10.67
2019-05-17T09:57:49.633Z,8.87
2019-05-17T10:00:26.481Z,9.47
2019-05-17T10:06:00.041Z,9.23
2019-05-17T10:08:42.163Z,9.87
2019-05-17T10:12:20.249Z,9.20
2019-05-17T10:14:05.058Z,9.20
2019-05-17T10:16:50.786Z,10.10
2019-05-17T10:19:23.518Z,10.77
2019-05-17T10:21:51.773Z,8.90
2019-05-17T10:24:33.842Z,9.67
2019-05-17T10:26:53.189Z,9.07
2019-05-17T10:29:23.125Z,8.73
2019-05-17T10:31:54.792Z,9.13
2019-05-17T10:34:36.585Z,9.83
2019-05-17T10:37:10.523Z,10.40
2019-05-17T10:39:50.220Z,9.43
2019-05-17T10:42:24.108Z,8.40
2019-05-17T10:45:06.077Z,9.77
2019-05-17T10:47:42.090Z,9.37
2019-05-17T10:50:12.182Z,9.80
2019-05-17T10:52:42.787Z,8.73
2019-05-17T10:55:14.496Z,9.17
2019-05-17T10:57:44.087Z,8.83
2019-05-17T11:00:23.557Z,9.50
2019-05-17T11:03:03.369Z,9.60
2019-05-17T11:05:33.128Z,8.83
2019-05-17T11:08:20.934Z,9.67
2019-05-17T11:11:01.023Z,9.37
2019-05-17T11:13:40.230Z,8.70
2019-05-17T11:16:14.305Z,8.97
2019-05-17T11:19:08.919Z,8.57
2019-05-17T11:22:23.577Z,8.70
2019-05-17T11:25:33.014Z,8.77
2019-05-17T11:28:03.539Z,8.43
2019-05-17T11:30:40.872Z,8.87
2019-05-17T11:33:10.256Z,7.80
2019-05-17T11:35:40.156Z,7.47
2019-05-17T11:38:11.633Z,8.27
2019-05-17T11:41:20.679Z,7.50
2019-05-17T11:45:26.637Z,8.67
2019-05-17T11:47:54.596Z,7.90
2019-05-17T11:50:34.483Z,7.83
2019-05-17T11:53:05.828Z,7.13
2019-05-17T11:56:02.591Z,7.60
2019-05-17T11:58:38.973Z,6.87
2019-05-17T12:03:46.937Z,7.00
2019-05-17T12:09:53.573Z,6.57
2019-05-17T12:12:43.970Z,7.57
2019-05-17T12:21:42.976Z,7.20
2019-05-17T12:29:54.225Z,9.17
2019-05-17T12:33:26.210Z,8.23
2019-05-17T12:39:02.283Z,8.00
2019-05-17T12:41:50.988Z,9.23
2019-05-17T12:44:21.618Z,8.07
2019-05-17T12:46:51.429Z,8.10
2019-05-17T12:50:10.818Z,8.23
2019-05-17T12:52:49.782Z,8.73
2019-05-17T12:55:53.560Z,7.83
2019-05-17T12:58:46.332Z,8.03
2019-05-17T13:04:30.751Z,7.63
2019-05-17T13:07:08.018Z,9.15
2019-05-17T13:09:42.183Z,7.97
2019-05-17T13:12:32.631Z,7.57
2019-05-17T13:18:07.376Z,7.97
2019-05-17T13:20:49.038Z,8.60
2019-05-17T13:23:27.175Z,7.97
2019-05-17T13:26:00.618Z,8.33
2019-05-17T13:28:30.541Z,8.50
2019-05-17T13:31:02.708Z,9.00
2019-05-17T13:33:34.839Z,8.37
2019-05-17T13:36:04.726Z,8.17
2019-05-17T13:38:42.490Z,7.57
2019-05-17T13:41:11.963Z,8.67
2019-05-17T13:43:41.536Z,8.13
2019-05-17T13:46:11.693Z,7.50
2019-05-17T13:48:41.146Z,7.47
2019-05-17T13:51:11.334Z,6.33
2019-05-17T13:53:40.995Z,6.57
2019-05-17T13:56:10.350Z,6.83
2019-05-17T13:58:40.024Z,6.33
2019-05-17T14:01:09.740Z,6.37
2019-05-17T14:03:39.216Z,6.33
2019-05-17T14:06:11.016Z,5.90
2019-05-17T14:08:40.354Z,6.10
2019-05-17T14:11:10.268Z,6.60
2019-05-17T14:13:40.327Z,6.77
2019-05-17T14:16:09.858Z,6.37
2019-05-17T14:18:39.925Z,6.73
2019-05-17T14:21:09.430Z,6.43
2019-05-17T14:23:40.908Z,6.37
2019-05-17T14:26:10.274Z,7.00
2019-05-17T14:28:42.763Z,7.30
2019-05-17T14:31:12.289Z,6.63
2019-05-17T14:33:41.848Z,7.27
2019-05-17T14:36:11.169Z,7.23
2019-05-17T14:38:42.612Z,6.90
2019-05-17T14:41:12.220Z,6.90
2019-05-17T14:43:41.796Z,7.53
2019-05-17T14:46:11.136Z,7.93
2019-05-17T14:48:41.041Z,8.23
2019-05-17T14:51:10.508Z,7.63
2019-05-17T14:53:43.123Z,7.70
2019-05-17T14:56:12.694Z,7.50
2019-05-17T14:59:11.806Z,7.30
2019-05-17T15:01:42.439Z,8.00
2019-05-17T15:04:19.906Z,7.23
2019-05-17T15:09:35.253Z,7.53
2019-05-17T15:12:05.004Z,7.00
2019-05-17T15:15:02.010Z,7.03
2019-05-17T15:18:01.998Z,6.47
2019-05-17T15:20:38.593Z,8.17
2019-05-17T15:23:20.188Z,7.53
2019-05-17T15:25:55.153Z,7.00
2019-05-17T15:28:29.614Z,7.93
2019-05-17T15:31:05.597Z,10.47
2019-05-17T15:33:52.471Z,7.83
2019-05-17T15:36:30.488Z,7.53
2019-05-17T15:39:01.795Z,7.60
2019-05-17T15:41:32.354Z,7.50
2019-05-17T15:44:04.003Z,7.00
2019-05-17T15:46:34.289Z,8.63
2019-05-17T15:49:06.321Z,7.20
2019-05-17T15:51:50.383Z,6.27
2019-05-17T15:54:26.297Z,6.33
2019-05-17T15:56:58.965Z,6.03
2019-05-17T15:59:38.075Z,6.57
2019-05-17T16:02:13.444Z,6.63
2019-05-17T16:04:46.187Z,6.60
2019-05-17T16:07:16.191Z,7.37
2019-05-17T16:09:55.028Z,5.77
2019-05-17T16:12:24.441Z,6.37
2019-05-17T16:14:54.164Z,6.17
2019-05-17T16:17:24.185Z,6.53
2019-05-17T16:19:54.766Z,6.10
2019-05-17T16:22:24.295Z,5.73
2019-05-17T16:24:53.897Z,6.87
2019-05-17T16:27:23.583Z,6.40
2019-05-17T16:29:53.258Z,7.37
2019-05-17T16:32:23.193Z,7.47
2019-05-17T16:34:52.765Z,8.07
2019-05-17T16:37:23.446Z,7.70
2019-05-17T16:39:52.944Z,6.90
2019-05-17T16:42:22.551Z,7.93
2019-05-17T16:44:52.115Z,8.00
2019-05-17T16:47:23.817Z,7.30
2019-05-17T16:49:58.256Z,7.30
2019-05-17T16:52:28.959Z,8.70
2019-05-17T16:54:58.857Z,8.43
2019-05-17T16:57:40.868Z,8.37
2019-05-17T17:00:31.235Z,8.83
2019-05-17T17:03:05.140Z,8.37
2019-05-17T17:05:36.181Z,9.00
2019-05-17T17:08:12.558Z,8.20
2019-05-17T17:10:43.592Z,8.90
2019-05-17T17:13:32.642Z,8.67
2019-05-17T17:16:52.738Z,8.13
2019-05-17T17:19:25.389Z,9.10
2019-05-17T17:21:55.550Z,8.70
2019-05-17T17:24:28.147Z,8.33
2019-05-17T17:27:06.770Z,8.17
2019-05-17T17:29:42.597Z,8.30
2019-05-17T17:32:22.850Z,9.50
2019-05-17T17:35:13.176Z,8.37
2019-05-17T17:37:52.790Z,8.40
2019-05-17T17:40:45.657Z,9.10
2019-05-17T17:43:17.170Z,9.53
2019-05-17T17:45:52.617Z,9.90
2019-05-17T17:48:24.785Z,9.70
2019-05-17T17:50:57.203Z,10.67
2019-05-17T17:53:27.049Z,9.77
2019-05-17T17:55:56.937Z,10.00
2019-05-17T17:58:26.438Z,9.73
2019-05-17T18:00:55.892Z,11.33
2019-05-17T18:03:26.586Z,11.73
2019-05-17T18:05:58.267Z,11.83
2019-05-17T18:08:27.367Z,13.07
2019-05-17T18:11:02.918Z,12.70
2019-05-17T18:13:32.311Z,13.47
2019-05-17T18:16:01.750Z,13.50
2019-05-17T18:18:32.810Z,12.57
2019-05-17T18:21:02.248Z,15.00
2019-05-17T18:23:31.844Z,15.40
2019-05-17T18:26:06.208Z,15.27
2019-05-17T18:28:35.731Z,15.20
2019-05-17T18:31:13.662Z,15.87
2019-05-17T18:33:46.016Z,14.80
2019-05-17T18:36:17.316Z,15.93
2019-05-17T18:38:57.026Z,14.03
2019-05-17T18:41:45.647Z,16.27
2019-05-17T18:44:27.767Z,14.63
2019-05-17T18:46:55.972Z,15.93
2019-05-17T18:49:27.334Z,15.50
2019-05-17T18:51:56.985Z,16.33
2019-05-17T18:54:28.218Z,15.47
2019-05-17T18:56:57.932Z,16.43
2019-05-17T18:59:34.940Z,16.83
2019-05-17T19:02:04.502Z,17.37
2019-05-17T19:04:34.339Z,16.43
2019-05-17T19:07:03.943Z,17.17
2019-05-17T19:09:57.752Z,17.83
2019-05-17T19:12:27.420Z,17.23
2019-05-17T19:15:06.736Z,16.83
2019-05-17T19:17:38.205Z,17.30
2019-05-17T19:20:16.838Z,17.93
2019-05-17T19:22:53.953Z,18.57
2019-05-17T19:25:45.076Z,19.70
2019-05-17T19:28:19.621Z,19.73
2019-05-17T19:30:49.857Z,19.40
2019-05-17T19:33:27.390Z,19.37
2019-05-17T19:36:10.585Z,21.03
2019-05-17T19:39:01.738Z,19.67
2019-05-17T19:45:45.585Z,17.73
2019-05-17T19:54:40.422Z,17.80
2019-05-17T20:01:13.639Z,18.23
2019-05-17T20:04:14.004Z,19.20
2019-05-17T20:07:03.230Z,18.90
2019-05-17T20:09:32.858Z,18.53
2019-05-17T20:12:02.394Z,18.00
2019-05-17T20:14:34.198Z,18.90
2019-05-17T20:17:03.924Z,19.50
2019-05-17T20:19:34.846Z,18.90
2019-05-17T20:22:09.102Z,18.70
2019-05-17T20:24:44.714Z,18.37
2019-05-17T20:27:14.331Z,18.63
2019-05-17T20:29:47.177Z,19.17
2019-05-17T20:32:17.326Z,19.33
2019-05-17T20:34:46.877Z,18.37
2019-05-17T20:37:16.336Z,18.00
2019-05-17T20:39:49.006Z,19.43
2019-05-17T20:42:20.247Z,18.80
2019-05-17T20:44:54.081Z,19.67
2019-05-17T20:50:25.710Z,18.50
2019-05-17T20:55:39.944Z,17.47
2019-05-17T20:58:17.228Z,17.63
2019-05-17T21:00:50.911Z,16.67
2019-05-17T21:03:25.927Z,17.27
2019-05-17T21:06:36.018Z,16.83
2019-05-17T21:09:03.865Z,17.73
2019-05-17T21:15:47.633Z,15.77
2019-05-17T21:18:17.457Z,16.80
2019-05-17T21:20:52.115Z,16.50
2019-05-17T21:23:29.911Z,15.70
2019-05-17T21:26:14.167Z,16.77
2019-05-17T21:30:23.332Z,17.53
2019-05-17T22:02:33.210Z,16.37
2019-05-17T22:09:17.487Z,17.40
2019-05-17T22:16:43.461Z,17.73
2019-05-17T22:18:59.445Z,17.37
2019-05-17T22:21:37.591Z,17.43
2019-05-17T22:33:02.867Z,16.20
2019-05-17T22:43:59.534Z,18.90
2019-05-17T22:47:25.102Z,18.80
2019-05-17T22:54:23.858Z,18.13
2019-05-17T22:57:28.583Z,19.17
2019-05-17T23:01:04.607Z,18.90
2019-05-17T23:03:48.915Z,21.17
2019-05-17T23:06:26.046Z,19.17
2019-05-17T23:09:12.600Z,20.00
2019-05-17T23:11:49.767Z,19.77
2019-05-17T23:14:41.843Z,20.03
2019-05-17T23:17:16.031Z,20.97
2019-05-17T23:19:57.006Z,20.93
2019-05-17T23:22:30.758Z,20.83
2019-05-17T23:25:14.765Z,20.73
2019-05-17T23:28:38.535Z,20.90
2019-05-17T23:31:23.735Z,21.83
2019-05-17T23:33:59.080Z,21.50
2019-05-17T23:37:01.403Z,21.03
2019-05-17T23:39:34.303Z,21.13
2019-05-17T23:43:07.587Z,20.17
2019-05-17T23:57:00.852Z,23.23
